sensor_id;sensor_type;location;lat;lon;timestamp;temperature;humidity
52879;DHT22;38747;53.140;6.498;2022-07-23T00:01:15;14.40;99.90
52879;DHT22;38747;53.140;6.498;2022-07-23T00:03:40;14.40;99.90
52879;DHT22;38747;53.140;6.498;2022-07-23T00:06:06;14.40;99.90
52879;DHT22;38747;53.140;6.498;2022-07-23T00:08:32;14.40;99.90
52879;DHT22;38747;53.140;6.498;2022-07-23T00:10:57;14.40;99.90
52879;DHT22;38747;53.140;6.498;2022-07-23T00:13:23;14.50;99.90
52879;DHT22;38747;53.140;6.498;2022-07-23T00:15:48;14.50;99.90
52879;DHT22;38747;53.140;6.498;2022-07-23T00:18:14;14.50;99.90
52879;DHT22;38747;53.140;6.498;2022-07-23T00:20:39;14.50;99.90
52879;DHT22;38747;53.140;6.498;2022-07-23T00:23:05;14.50;99.90
52879;DHT22;38747;53.140;6.498;2022-07-23T00:25:30;14.50;99.90
52879;DHT22;38747;53.140;6.498;2022-07-23T00:27:57;14.40;99.90
52879;DHT22;38747;53.140;6.498;2022-07-23T00:30:23;14.50;99.90
52879;DHT22;38747;53.140;6.498;2022-07-23T00:32:54;14.50;99.90
52879;DHT22;38747;53.140;6.498;2022-07-23T00:35:23;14.50;99.90
52879;DHT22;38747;53.140;6.498;2022-07-23T00:37:49;14.60;99.90
52879;DHT22;38747;53.140;6.498;2022-07-23T00:40:15;14.60;99.90
52879;DHT22;38747;53.140;6.498;2022-07-23T00:42:41;14.50;99.90
52879;DHT22;38747;53.140;6.498;2022-07-23T00:45:07;14.60;99.90
52879;DHT22;38747;53.140;6.498;2022-07-23T00:47:33;14.50;99.90
52879;DHT22;38747;53.140;6.498;2022-07-23T00:49:58;14.50;99.90
52879;DHT22;38747;53.140;6.498;2022-07-23T00:52:24;14.50;99.90
52879;DHT22;38747;53.140;6.498;2022-07-23T00:54:50;14.50;99.90
52879;DHT22;38747;53.140;6.498;2022-07-23T00:57:16;14.50;99.90
52879;DHT22;38747;53.140;6.498;2022-07-23T00:59:41;14.40;99.90
52879;DHT22;38747;53.140;6.498;2022-07-23T01:02:07;14.40;99.90
52879;DHT22;38747;53.140;6.498;2022-07-23T01:04:33;14.30;99.90
52879;DHT22;38747;53.140;6.498;2022-07-23T01:06:58;14.30;99.90
52879;DHT22;38747;53.140;6.498;2022-07-23T01:09:24;14.20;99.90
52879;DHT22;38747;53.140;6.498;2022-07-23T01:11:50;14.20;99.90
52879;DHT22;38747;53.140;6.498;2022-07-23T01:14:17;14.20;99.90
52879;DHT22;38747;53.140;6.498;2022-07-23T01:16:45;14.20;99.90
52879;DHT22;38747;53.140;6.498;2022-07-23T01:19:11;14.10;99.90
52879;DHT22;38747;53.140;6.498;2022-07-23T01:21:44;14.10;99.90
52879;DHT22;38747;53.140;6.498;2022-07-23T01:24:10;14.00;99.90
52879;DHT22;38747;53.140;6.498;2022-07-23T01:26:37;13.90;99.90
52879;DHT22;38747;53.140;6.498;2022-07-23T01:29:03;13.80;99.90
52879;DHT22;38747;53.140;6.498;2022-07-23T01:31:30;13.80;99.90
52879;DHT22;38747;53.140;6.498;2022-07-23T01:33:55;13.80;99.90
52879;DHT22;38747;53.140;6.498;2022-07-23T01:36:22;13.70;99.90
52879;DHT22;38747;53.140;6.498;2022-07-23T01:38:49;13.70;99.90
52879;DHT22;38747;53.140;6.498;2022-07-23T01:41:15;13.70;99.90
52879;DHT22;38747;53.140;6.498;2022-07-23T01:43:41;13.50;99.90
52879;DHT22;38747;53.140;6.498;2022-07-23T01:46:06;13.50;99.90
52879;DHT22;38747;53.140;6.498;2022-07-23T01:48:32;13.50;99.90
52879;DHT22;38747;53.140;6.498;2022-07-23T01:50:57;13.40;99.90
52879;DHT22;38747;53.140;6.498;2022-07-23T01:53:23;13.40;99.90
52879;DHT22;38747;53.140;6.498;2022-07-23T01:55:49;13.40;99.90
52879;DHT22;38747;53.140;6.498;2022-07-23T01:58:15;13.30;99.90
52879;DHT22;38747;53.140;6.498;2022-07-23T02:00:41;13.30;99.90
52879;DHT22;38747;53.140;6.498;2022-07-23T02:03:06;13.20;99.90
52879;DHT22;38747;53.140;6.498;2022-07-23T02:05:32;13.20;99.90
52879;DHT22;38747;53.140;6.498;2022-07-23T02:07:58;13.10;99.90
52879;DHT22;38747;53.140;6.498;2022-07-23T02:10:25;13.10;99.90
52879;DHT22;38747;53.140;6.498;2022-07-23T02:12:51;13.00;99.90
52879;DHT22;38747;53.140;6.498;2022-07-23T02:15:16;13.00;99.90
52879;DHT22;38747;53.140;6.498;2022-07-23T02:17:42;13.00;99.90
52879;DHT22;38747;53.140;6.498;2022-07-23T02:20:09;13.00;99.90
52879;DHT22;38747;53.140;6.498;2022-07-23T02:22:35;13.00;99.90
52879;DHT22;38747;53.140;6.498;2022-07-23T02:25:02;12.90;99.90
52879;DHT22;38747;53.140;6.498;2022-07-23T02:27:27;12.90;99.90
52879;DHT22;38747;53.140;6.498;2022-07-23T02:29:53;12.80;99.90
52879;DHT22;38747;53.140;6.498;2022-07-23T02:32:19;12.80;99.90
52879;DHT22;38747;53.140;6.498;2022-07-23T02:34:47;12.80;99.90
52879;DHT22;38747;53.140;6.498;2022-07-23T02:37:12;12.80;99.90
52879;DHT22;38747;53.140;6.498;2022-07-23T02:39:38;12.80;99.90
52879;DHT22;38747;53.140;6.498;2022-07-23T02:42:04;12.90;99.90
52879;DHT22;38747;53.140;6.498;2022-07-23T02:44:33;12.90;99.90
52879;DHT22;38747;53.140;6.498;2022-07-23T02:46:58;12.90;99.90
52879;DHT22;38747;53.140;6.498;2022-07-23T02:49:24;12.90;99.90
52879;DHT22;38747;53.140;6.498;2022-07-23T02:51:50;12.90;99.90
52879;DHT22;38747;53.140;6.498;2022-07-23T02:54:15;12.90;99.90
52879;DHT22;38747;53.140;6.498;2022-07-23T02:56:41;12.90;99.90
52879;DHT22;38747;53.140;6.498;2022-07-23T02:59:07;12.90;99.90
52879;DHT22;38747;53.140;6.498;2022-07-23T03:01:34;12.80;99.90
52879;DHT22;38747;53.140;6.498;2022-07-23T03:03:59;12.80;99.90
52879;DHT22;38747;53.140;6.498;2022-07-23T03:06:25;12.80;99.90
52879;DHT22;38747;53.140;6.498;2022-07-23T03:08:50;12.80;99.90
52879;DHT22;38747;53.140;6.498;2022-07-23T03:11:16;12.70;99.90
52879;DHT22;38747;53.140;6.498;2022-07-23T03:13:42;12.70;99.90
52879;DHT22;38747;53.140;6.498;2022-07-23T03:16:07;12.60;99.90
52879;DHT22;38747;53.140;6.498;2022-07-23T03:18:33;12.50;99.90
52879;DHT22;38747;53.140;6.498;2022-07-23T03:20:59;12.50;99.90
52879;DHT22;38747;53.140;6.498;2022-07-23T03:23:25;12.40;99.90
52879;DHT22;38747;53.140;6.498;2022-07-23T03:25:51;12.40;99.90
52879;DHT22;38747;53.140;6.498;2022-07-23T03:28:17;12.40;99.90
52879;DHT22;38747;53.140;6.498;2022-07-23T03:30:47;12.40;99.90
52879;DHT22;38747;53.140;6.498;2022-07-23T03:33:13;12.40;99.90
52879;DHT22;38747;53.140;6.498;2022-07-23T03:35:39;12.40;99.90
52879;DHT22;38747;53.140;6.498;2022-07-23T03:38:05;12.40;99.90
52879;DHT22;38747;53.140;6.498;2022-07-23T03:40:30;12.30;99.90
52879;DHT22;38747;53.140;6.498;2022-07-23T03:42:56;12.30;99.90
52879;DHT22;38747;53.140;6.498;2022-07-23T03:45:22;12.30;99.90
52879;DHT22;38747;53.140;6.498;2022-07-23T03:47:47;12.30;99.90
52879;DHT22;38747;53.140;6.498;2022-07-23T03:50:13;12.30;99.90
52879;DHT22;38747;53.140;6.498;2022-07-23T03:52:38;12.30;99.90
52879;DHT22;38747;53.140;6.498;2022-07-23T03:55:04;12.30;99.90
52879;DHT22;38747;53.140;6.498;2022-07-23T03:57:30;12.30;99.90
52879;DHT22;38747;53.140;6.498;2022-07-23T03:59:55;12.30;99.90
52879;DHT22;38747;53.140;6.498;2022-07-23T04:02:21;12.30;99.90
52879;DHT22;38747;53.140;6.498;2022-07-23T04:04:47;12.30;99.90
52879;DHT22;38747;53.140;6.498;2022-07-23T04:07:13;12.30;99.90
52879;DHT22;38747;53.140;6.498;2022-07-23T04:09:39;12.40;99.90
52879;DHT22;38747;53.140;6.498;2022-07-23T04:12:06;12.40;99.90
52879;DHT22;38747;53.140;6.498;2022-07-23T04:14:32;12.40;99.90
52879;DHT22;38747;53.140;6.498;2022-07-23T04:16:58;12.40;99.90
52879;DHT22;38747;53.140;6.498;2022-07-23T04:19:24;12.40;99.90
52879;DHT22;38747;53.140;6.498;2022-07-23T04:21:50;12.50;99.90
52879;DHT22;38747;53.140;6.498;2022-07-23T04:24:16;12.50;99.90
52879;DHT22;38747;53.140;6.498;2022-07-23T04:26:41;12.50;99.90
52879;DHT22;38747;53.140;6.498;2022-07-23T04:29:07;12.60;99.90
52879;DHT22;38747;53.140;6.498;2022-07-23T04:31:32;12.60;99.90
52879;DHT22;38747;53.140;6.498;2022-07-23T04:33:58;12.70;99.90
52879;DHT22;38747;53.140;6.498;2022-07-23T04:36:23;12.70;99.90
52879;DHT22;38747;53.140;6.498;2022-07-23T04:38:49;12.70;99.90
52879;DHT22;38747;53.140;6.498;2022-07-23T04:41:15;12.70;99.90
52879;DHT22;38747;53.140;6.498;2022-07-23T04:43:40;12.80;99.90
52879;DHT22;38747;53.140;6.498;2022-07-23T04:46:06;12.80;99.90
52879;DHT22;38747;53.140;6.498;2022-07-23T04:48:32;12.90;99.90
52879;DHT22;38747;53.140;6.498;2022-07-23T04:50:57;12.90;99.90
52879;DHT22;38747;53.140;6.498;2022-07-23T04:53:23;13.00;99.90
52879;DHT22;38747;53.140;6.498;2022-07-23T04:55:48;13.10;99.90
52879;DHT22;38747;53.140;6.498;2022-07-23T04:58:14;13.10;99.90
52879;DHT22;38747;53.140;6.498;2022-07-23T05:00:40;13.10;99.90
52879;DHT22;38747;53.140;6.498;2022-07-23T05:03:05;13.20;99.90
52879;DHT22;38747;53.140;6.498;2022-07-23T05:05:31;13.20;99.90
52879;DHT22;38747;53.140;6.498;2022-07-23T05:07:57;13.30;99.90
52879;DHT22;38747;53.140;6.498;2022-07-23T05:10:22;13.30;99.90
52879;DHT22;38747;53.140;6.498;2022-07-23T05:12:48;13.40;99.90
52879;DHT22;38747;53.140;6.498;2022-07-23T05:15:13;13.60;99.90
52879;DHT22;38747;53.140;6.498;2022-07-23T05:17:39;13.60;99.90
52879;DHT22;38747;53.140;6.498;2022-07-23T05:20:04;13.70;99.90
52879;DHT22;38747;53.140;6.498;2022-07-23T05:22:30;13.70;99.90
52879;DHT22;38747;53.140;6.498;2022-07-23T05:24:56;13.70;99.90
52879;DHT22;38747;53.140;6.498;2022-07-23T05:27:21;13.80;99.90
52879;DHT22;38747;53.140;6.498;2022-07-23T05:29:47;13.80;99.90
52879;DHT22;38747;53.140;6.498;2022-07-23T05:32:13;13.90;99.90
52879;DHT22;38747;53.140;6.498;2022-07-23T05:34:38;13.90;99.90
52879;DHT22;38747;53.140;6.498;2022-07-23T05:37:04;13.90;99.90
52879;DHT22;38747;53.140;6.498;2022-07-23T05:39:30;13.90;99.90
52879;DHT22;38747;53.140;6.498;2022-07-23T05:41:56;13.90;99.90
52879;DHT22;38747;53.140;6.498;2022-07-23T05:44:21;13.90;99.90
52879;DHT22;38747;53.140;6.498;2022-07-23T05:46:47;13.80;99.90
52879;DHT22;38747;53.140;6.498;2022-07-23T05:49:13;13.80;99.90
52879;DHT22;38747;53.140;6.498;2022-07-23T05:51:38;13.90;99.90
52879;DHT22;38747;53.140;6.498;2022-07-23T05:54:04;13.90;99.90
52879;DHT22;38747;53.140;6.498;2022-07-23T05:56:29;14.00;99.90
52879;DHT22;38747;53.140;6.498;2022-07-23T05:58:55;14.10;99.90
52879;DHT22;38747;53.140;6.498;2022-07-23T06:01:20;14.20;99.90
52879;DHT22;38747;53.140;6.498;2022-07-23T06:03:46;14.20;99.90
52879;DHT22;38747;53.140;6.498;2022-07-23T06:06:12;14.30;99.90
52879;DHT22;38747;53.140;6.498;2022-07-23T06:08:38;14.40;99.90
52879;DHT22;38747;53.140;6.498;2022-07-23T06:11:03;14.50;99.90
52879;DHT22;38747;53.140;6.498;2022-07-23T06:13:29;14.60;99.90
52879;DHT22;38747;53.140;6.498;2022-07-23T06:15:55;14.80;99.90
52879;DHT22;38747;53.140;6.498;2022-07-23T06:18:20;14.90;99.90
52879;DHT22;38747;53.140;6.498;2022-07-23T06:20:46;15.00;99.90
52879;DHT22;38747;53.140;6.498;2022-07-23T06:23:11;15.10;99.90
52879;DHT22;38747;53.140;6.498;2022-07-23T06:25:38;15.10;99.90
52879;DHT22;38747;53.140;6.498;2022-07-23T06:28:03;15.10;99.90
52879;DHT22;38747;53.140;6.498;2022-07-23T06:30:29;15.30;99.90
52879;DHT22;38747;53.140;6.498;2022-07-23T06:32:55;15.40;99.90
52879;DHT22;38747;53.140;6.498;2022-07-23T06:35:20;15.50;99.90
52879;DHT22;38747;53.140;6.498;2022-07-23T06:37:46;15.50;99.90
52879;DHT22;38747;53.140;6.498;2022-07-23T06:40:11;15.50;99.90
52879;DHT22;38747;53.140;6.498;2022-07-23T06:42:38;15.40;99.90
52879;DHT22;38747;53.140;6.498;2022-07-23T06:45:05;15.40;99.90
52879;DHT22;38747;53.140;6.498;2022-07-23T06:47:31;15.40;99.90
52879;DHT22;38747;53.140;6.498;2022-07-23T06:49:57;15.50;99.90
52879;DHT22;38747;53.140;6.498;2022-07-23T06:52:22;15.50;99.90
52879;DHT22;38747;53.140;6.498;2022-07-23T06:54:48;15.60;99.90
52879;DHT22;38747;53.140;6.498;2022-07-23T06:57:14;15.70;99.90
52879;DHT22;38747;53.140;6.498;2022-07-23T06:59:40;15.80;99.90
52879;DHT22;38747;53.140;6.498;2022-07-23T07:02:07;15.80;99.90
52879;DHT22;38747;53.140;6.498;2022-07-23T07:04:32;15.90;99.90
52879;DHT22;38747;53.140;6.498;2022-07-23T07:06:58;16.00;99.90
52879;DHT22;38747;53.140;6.498;2022-07-23T07:09:24;16.20;99.90
52879;DHT22;38747;53.140;6.498;2022-07-23T07:11:49;16.40;99.90
52879;DHT22;38747;53.140;6.498;2022-07-23T07:14:15;16.60;99.90
52879;DHT22;38747;53.140;6.498;2022-07-23T07:16:40;16.70;99.90
52879;DHT22;38747;53.140;6.498;2022-07-23T07:19:06;16.90;99.90
52879;DHT22;38747;53.140;6.498;2022-07-23T07:21:32;17.00;99.90
52879;DHT22;38747;53.140;6.498;2022-07-23T07:23:57;17.00;99.90
52879;DHT22;38747;53.140;6.498;2022-07-23T07:26:23;16.80;99.90
52879;DHT22;38747;53.140;6.498;2022-07-23T07:28:49;16.70;99.90
52879;DHT22;38747;53.140;6.498;2022-07-23T07:31:14;16.60;99.90
52879;DHT22;38747;53.140;6.498;2022-07-23T07:33:41;16.60;99.90
52879;DHT22;38747;53.140;6.498;2022-07-23T07:36:07;16.60;99.90
52879;DHT22;38747;53.140;6.498;2022-07-23T07:38:32;16.60;99.90
52879;DHT22;38747;53.140;6.498;2022-07-23T07:40:58;16.60;99.90
52879;DHT22;38747;53.140;6.498;2022-07-23T07:43:24;16.70;99.90
52879;DHT22;38747;53.140;6.498;2022-07-23T07:45:49;16.70;99.90
52879;DHT22;38747;53.140;6.498;2022-07-23T07:48:15;16.70;99.90
52879;DHT22;38747;53.140;6.498;2022-07-23T07:50:40;16.80;99.90
52879;DHT22;38747;53.140;6.498;2022-07-23T07:53:06;16.90;99.90
52879;DHT22;38747;53.140;6.498;2022-07-23T07:55:31;17.00;99.90
52879;DHT22;38747;53.140;6.498;2022-07-23T07:57:57;17.10;99.90
52879;DHT22;38747;53.140;6.498;2022-07-23T08:00:23;17.30;99.90
52879;DHT22;38747;53.140;6.498;2022-07-23T08:02:49;17.30;99.90
52879;DHT22;38747;53.140;6.498;2022-07-23T08:05:21;17.30;99.90
52879;DHT22;38747;53.140;6.498;2022-07-23T08:07:47;17.30;99.90
52879;DHT22;38747;53.140;6.498;2022-07-23T08:10:13;17.40;99.90
52879;DHT22;38747;53.140;6.498;2022-07-23T08:12:44;17.50;99.90
52879;DHT22;38747;53.140;6.498;2022-07-23T08:15:11;17.70;99.90
52879;DHT22;38747;53.140;6.498;2022-07-23T08:17:37;17.80;99.90
52879;DHT22;38747;53.140;6.498;2022-07-23T08:20:04;17.80;99.90
52879;DHT22;38747;53.140;6.498;2022-07-23T08:22:52;17.80;99.90
52879;DHT22;38747;53.140;6.498;2022-07-23T08:25:24;17.90;99.90
52879;DHT22;38747;53.140;6.498;2022-07-23T08:27:50;18.00;99.90
52879;DHT22;38747;53.140;6.498;2022-07-23T08:30:17;18.20;99.90
52879;DHT22;38747;53.140;6.498;2022-07-23T08:32:50;18.40;99.90
52879;DHT22;38747;53.140;6.498;2022-07-23T08:35:17;18.50;99.90
52879;DHT22;38747;53.140;6.498;2022-07-23T08:37:43;18.70;99.90
52879;DHT22;38747;53.140;6.498;2022-07-23T08:40:09;18.70;99.90
52879;DHT22;38747;53.140;6.498;2022-07-23T08:42:35;18.70;99.90
52879;DHT22;38747;53.140;6.498;2022-07-23T08:45:01;18.60;99.90
52879;DHT22;38747;53.140;6.498;2022-07-23T08:47:28;18.50;99.90
52879;DHT22;38747;53.140;6.498;2022-07-23T08:49:53;18.60;99.90
52879;DHT22;38747;53.140;6.498;2022-07-23T08:52:20;18.70;99.90
52879;DHT22;38747;53.140;6.498;2022-07-23T08:54:45;18.80;99.90
52879;DHT22;38747;53.140;6.498;2022-07-23T08:57:11;18.80;99.90
52879;DHT22;38747;53.140;6.498;2022-07-23T08:59:37;18.90;99.90
52879;DHT22;38747;53.140;6.498;2022-07-23T09:02:02;18.90;99.90
52879;DHT22;38747;53.140;6.498;2022-07-23T09:04:28;18.90;99.90
52879;DHT22;38747;53.140;6.498;2022-07-23T09:06:54;18.90;99.90
52879;DHT22;38747;53.140;6.498;2022-07-23T09:09:21;18.90;99.90
52879;DHT22;38747;53.140;6.498;2022-07-23T09:11:47;18.90;99.90
52879;DHT22;38747;53.140;6.498;2022-07-23T09:14:13;18.80;99.90
52879;DHT22;38747;53.140;6.498;2022-07-23T09:16:38;18.90;99.90
52879;DHT22;38747;53.140;6.498;2022-07-23T09:19:06;18.70;99.90
52879;DHT22;38747;53.140;6.498;2022-07-23T09:21:36;18.80;99.90
52879;DHT22;38747;53.140;6.498;2022-07-23T09:24:09;18.90;99.90
52879;DHT22;38747;53.140;6.498;2022-07-23T09:26:42;18.90;99.90
52879;DHT22;38747;53.140;6.498;2022-07-23T09:31:53;19.20;99.90
52879;DHT22;38747;53.140;6.498;2022-07-23T09:34:25;19.20;99.90
52879;DHT22;38747;53.140;6.498;2022-07-23T09:37:09;19.30;99.90
52879;DHT22;38747;53.140;6.498;2022-07-23T09:39:35;19.40;99.90
52879;DHT22;38747;53.140;6.498;2022-07-23T09:42:19;19.50;99.90
52879;DHT22;38747;53.140;6.498;2022-07-23T09:44:53;19.50;99.90
52879;DHT22;38747;53.140;6.498;2022-07-23T09:47:20;19.40;99.90
52879;DHT22;38747;53.140;6.498;2022-07-23T09:52:32;19.50;99.90
52879;DHT22;38747;53.140;6.498;2022-07-23T09:55:00;19.60;99.90
52879;DHT22;38747;53.140;6.498;2022-07-23T09:57:26;19.70;99.90
52879;DHT22;38747;53.140;6.498;2022-07-23T09:59:52;19.70;99.90
52879;DHT22;38747;53.140;6.498;2022-07-23T10:02:18;19.80;99.90
52879;DHT22;38747;53.140;6.498;2022-07-23T10:04:43;19.80;99.90
52879;DHT22;38747;53.140;6.498;2022-07-23T10:07:09;19.90;99.90
52879;DHT22;38747;53.140;6.498;2022-07-23T10:09:39;20.00;99.90
52879;DHT22;38747;53.140;6.498;2022-07-23T10:12:14;20.10;99.90
52879;DHT22;38747;53.140;6.498;2022-07-23T10:14:59;20.10;99.90
52879;DHT22;38747;53.140;6.498;2022-07-23T10:17:27;20.10;99.90
52879;DHT22;38747;53.140;6.498;2022-07-23T10:19:52;20.10;99.90
52879;DHT22;38747;53.140;6.498;2022-07-23T10:22:25;20.10;99.90
52879;DHT22;38747;53.140;6.498;2022-07-23T10:25:25;19.70;99.90
52879;DHT22;38747;53.140;6.498;2022-07-23T10:37:00;19.80;99.90
52879;DHT22;38747;53.140;6.498;2022-07-23T10:39:34;20.00;99.90
52879;DHT22;38747;53.140;6.498;2022-07-23T10:42:14;20.20;99.90
52879;DHT22;38747;53.140;6.498;2022-07-23T10:44:45;20.40;99.90
52879;DHT22;38747;53.140;6.498;2022-07-23T10:47:13;20.40;99.90
52879;DHT22;38747;53.140;6.498;2022-07-23T10:50:26;20.30;99.90
52879;DHT22;38747;53.140;6.498;2022-07-23T10:58:01;20.00;99.90
52879;DHT22;38747;53.140;6.498;2022-07-23T11:00:28;19.90;99.90
52879;DHT22;38747;53.140;6.498;2022-07-23T11:02:59;19.90;99.90
52879;DHT22;38747;53.140;6.498;2022-07-23T11:05:39;19.90;99.90
52879;DHT22;38747;53.140;6.498;2022-07-23T11:10:38;20.00;99.90
52879;DHT22;38747;53.140;6.498;2022-07-23T11:32:04;20.60;99.90
52879;DHT22;38747;53.140;6.498;2022-07-23T11:34:35;20.80;99.90
52879;DHT22;38747;53.140;6.498;2022-07-23T11:37:03;20.80;99.90
52879;DHT22;38747;53.140;6.498;2022-07-23T11:39:30;20.90;99.90
52879;DHT22;38747;53.140;6.498;2022-07-23T11:41:57;20.90;99.90
52879;DHT22;38747;53.140;6.498;2022-07-23T11:44:34;21.00;99.90
52879;DHT22;38747;53.140;6.498;2022-07-23T11:47:01;21.10;99.90
52879;DHT22;38747;53.140;6.498;2022-07-23T11:49:28;21.20;99.90
52879;DHT22;38747;53.140;6.498;2022-07-23T11:52:13;21.20;99.90
52879;DHT22;38747;53.140;6.498;2022-07-23T11:57:34;21.40;99.90
52879;DHT22;38747;53.140;6.498;2022-07-23T12:00:18;21.70;99.90
52879;DHT22;38747;53.140;6.498;2022-07-23T12:02:46;21.40;99.90
52879;DHT22;38747;53.140;6.498;2022-07-23T12:05:16;21.30;99.90
52879;DHT22;38747;53.140;6.498;2022-07-23T12:07:44;21.30;99.90
52879;DHT22;38747;53.140;6.498;2022-07-23T12:10:20;21.40;99.90
52879;DHT22;38747;53.140;6.498;2022-07-23T12:12:54;21.50;99.90
52879;DHT22;38747;53.140;6.498;2022-07-23T12:15:24;21.40;99.90
52879;DHT22;38747;53.140;6.498;2022-07-23T12:17:51;21.40;99.90
52879;DHT22;38747;53.140;6.498;2022-07-23T12:20:23;21.30;99.90
52879;DHT22;38747;53.140;6.498;2022-07-23T12:22:51;21.50;99.90
52879;DHT22;38747;53.140;6.498;2022-07-23T12:25:20;21.80;99.90
52879;DHT22;38747;53.140;6.498;2022-07-23T12:27:46;21.60;99.90
52879;DHT22;38747;53.140;6.498;2022-07-23T12:32:46;21.40;99.90
52879;DHT22;38747;53.140;6.498;2022-07-23T12:35:12;21.40;99.90
52879;DHT22;38747;53.140;6.498;2022-07-23T12:37:40;21.40;99.90
52879;DHT22;38747;53.140;6.498;2022-07-23T12:40:54;21.40;99.90
52879;DHT22;38747;53.140;6.498;2022-07-23T12:43:25;21.20;99.90
52879;DHT22;38747;53.140;6.498;2022-07-23T12:45:55;21.10;99.90
52879;DHT22;38747;53.140;6.498;2022-07-23T12:48:27;20.90;99.90
52879;DHT22;38747;53.140;6.498;2022-07-23T12:50:57;21.10;99.90
52879;DHT22;38747;53.140;6.498;2022-07-23T12:53:28;21.30;99.90
52879;DHT22;38747;53.140;6.498;2022-07-23T12:56:10;21.50;99.90
52879;DHT22;38747;53.140;6.498;2022-07-23T12:58:47;21.80;99.90
52879;DHT22;38747;53.140;6.498;2022-07-23T13:06:30;22.60;99.90
52879;DHT22;38747;53.140;6.498;2022-07-23T13:08:57;22.60;99.90
52879;DHT22;38747;53.140;6.498;2022-07-23T13:11:23;22.30;99.90
52879;DHT22;38747;53.140;6.498;2022-07-23T13:13:49;22.10;99.90
52879;DHT22;38747;53.140;6.498;2022-07-23T13:16:15;21.80;99.90
52879;DHT22;38747;53.140;6.498;2022-07-23T13:18:41;21.50;99.90
52879;DHT22;38747;53.140;6.498;2022-07-23T13:21:07;21.50;99.90
52879;DHT22;38747;53.140;6.498;2022-07-23T13:23:33;21.70;99.90
52879;DHT22;38747;53.140;6.498;2022-07-23T13:25:59;21.90;99.90
52879;DHT22;38747;53.140;6.498;2022-07-23T13:28:24;22.20;99.90
52879;DHT22;38747;53.140;6.498;2022-07-23T13:30:51;22.30;99.90
52879;DHT22;38747;53.140;6.498;2022-07-23T13:33:22;22.30;99.90
52879;DHT22;38747;53.140;6.498;2022-07-23T13:35:49;22.40;99.90
52879;DHT22;38747;53.140;6.498;2022-07-23T13:38:16;22.40;99.90
52879;DHT22;38747;53.140;6.498;2022-07-23T13:40:44;22.70;99.90
52879;DHT22;38747;53.140;6.498;2022-07-23T13:43:11;23.00;99.90
52879;DHT22;38747;53.140;6.498;2022-07-23T13:45:38;23.30;99.90
52879;DHT22;38747;53.140;6.498;2022-07-23T13:48:04;23.30;99.90
52879;DHT22;38747;53.140;6.498;2022-07-23T13:50:30;23.10;99.90
52879;DHT22;38747;53.140;6.498;2022-07-23T13:52:56;22.70;99.90
52879;DHT22;38747;53.140;6.498;2022-07-23T13:55:22;22.70;99.90
52879;DHT22;38747;53.140;6.498;2022-07-23T13:57:48;22.70;99.90
52879;DHT22;38747;53.140;6.498;2022-07-23T14:00:14;22.60;99.90
52879;DHT22;38747;53.140;6.498;2022-07-23T14:02:41;22.60;99.90
52879;DHT22;38747;53.140;6.498;2022-07-23T14:05:09;22.70;99.90
52879;DHT22;38747;53.140;6.498;2022-07-23T14:07:36;23.00;99.90
52879;DHT22;38747;53.140;6.498;2022-07-23T14:10:04;23.10;99.90
52879;DHT22;38747;53.140;6.498;2022-07-23T14:12:30;23.20;99.90
52879;DHT22;38747;53.140;6.498;2022-07-23T14:14:56;23.10;99.90
52879;DHT22;38747;53.140;6.498;2022-07-23T14:17:22;22.90;99.90
52879;DHT22;38747;53.140;6.498;2022-07-23T14:19:51;22.90;99.90
52879;DHT22;38747;53.140;6.498;2022-07-23T14:22:16;22.90;99.90
52879;DHT22;38747;53.140;6.498;2022-07-23T14:24:42;22.90;99.90
52879;DHT22;38747;53.140;6.498;2022-07-23T14:27:08;22.80;99.90
52879;DHT22;38747;53.140;6.498;2022-07-23T14:29:33;22.60;99.90
52879;DHT22;38747;53.140;6.498;2022-07-23T14:31:59;22.20;99.90
52879;DHT22;38747;53.140;6.498;2022-07-23T14:34:26;22.00;99.90
52879;DHT22;38747;53.140;6.498;2022-07-23T14:36:52;22.00;99.90
52879;DHT22;38747;53.140;6.498;2022-07-23T14:39:18;21.90;99.90
52879;DHT22;38747;53.140;6.498;2022-07-23T14:41:44;21.90;99.90
52879;DHT22;38747;53.140;6.498;2022-07-23T14:44:09;21.90;99.90
52879;DHT22;38747;53.140;6.498;2022-07-23T14:46:35;22.00;99.90
52879;DHT22;38747;53.140;6.498;2022-07-23T14:49:02;22.00;99.90
52879;DHT22;38747;53.140;6.498;2022-07-23T14:51:27;21.80;99.90
52879;DHT22;38747;53.140;6.498;2022-07-23T14:53:53;21.80;99.90
52879;DHT22;38747;53.140;6.498;2022-07-23T14:56:19;21.80;99.90
52879;DHT22;38747;53.140;6.498;2022-07-23T14:58:44;21.90;99.90
52879;DHT22;38747;53.140;6.498;2022-07-23T15:01:10;21.90;99.90
52879;DHT22;38747;53.140;6.498;2022-07-23T15:03:36;21.80;99.90
52879;DHT22;38747;53.140;6.498;2022-07-23T15:06:01;21.80;99.90
52879;DHT22;38747;53.140;6.498;2022-07-23T15:08:27;21.80;99.90
52879;DHT22;38747;53.140;6.498;2022-07-23T15:10:52;21.80;99.90
52879;DHT22;38747;53.140;6.498;2022-07-23T15:13:18;21.70;99.90
52879;DHT22;38747;53.140;6.498;2022-07-23T15:15:44;21.70;99.90
52879;DHT22;38747;53.140;6.498;2022-07-23T15:18:10;21.60;99.90
52879;DHT22;38747;53.140;6.498;2022-07-23T15:20:36;21.60;99.90
52879;DHT22;38747;53.140;6.498;2022-07-23T15:23:04;21.50;99.90
52879;DHT22;38747;53.140;6.498;2022-07-23T15:25:29;21.60;99.90
52879;DHT22;38747;53.140;6.498;2022-07-23T15:27:56;21.70;99.90
52879;DHT22;38747;53.140;6.498;2022-07-23T15:30:24;21.70;99.90
52879;DHT22;38747;53.140;6.498;2022-07-23T15:32:50;21.80;99.90
52879;DHT22;38747;53.140;6.498;2022-07-23T15:35:15;21.80;99.90
52879;DHT22;38747;53.140;6.498;2022-07-23T15:37:41;21.70;99.90
52879;DHT22;38747;53.140;6.498;2022-07-23T15:40:08;21.70;99.90
52879;DHT22;38747;53.140;6.498;2022-07-23T15:42:34;21.70;99.90
52879;DHT22;38747;53.140;6.498;2022-07-23T15:44:59;21.70;99.90
52879;DHT22;38747;53.140;6.498;2022-07-23T15:47:25;21.70;99.90
52879;DHT22;38747;53.140;6.498;2022-07-23T15:49:51;21.70;99.90
52879;DHT22;38747;53.140;6.498;2022-07-23T15:52:16;21.70;99.90
52879;DHT22;38747;53.140;6.498;2022-07-23T15:54:42;21.50;99.90
52879;DHT22;38747;53.140;6.498;2022-07-23T15:57:08;21.50;99.90
52879;DHT22;38747;53.140;6.498;2022-07-23T15:59:33;21.40;99.90
52879;DHT22;38747;53.140;6.498;2022-07-23T16:01:59;21.30;99.90
52879;DHT22;38747;53.140;6.498;2022-07-23T16:04:25;21.30;99.90
52879;DHT22;38747;53.140;6.498;2022-07-23T16:06:50;21.40;99.90
52879;DHT22;38747;53.140;6.498;2022-07-23T16:09:16;21.40;99.90
52879;DHT22;38747;53.140;6.498;2022-07-23T16:11:41;21.40;99.90
52879;DHT22;38747;53.140;6.498;2022-07-23T16:14:07;21.40;99.90
52879;DHT22;38747;53.140;6.498;2022-07-23T16:16:34;21.40;99.90
52879;DHT22;38747;53.140;6.498;2022-07-23T16:18:59;21.50;99.90
52879;DHT22;38747;53.140;6.498;2022-07-23T16:21:25;21.50;99.90